Orlando Sanford International Airport
KSFB : now visible

Airfield :











YOU CAN JOIN US ON...

 
LOGIN :

Register | Disclaimer

   EN    FR    IT 

 









Legend :    VFR   Marginal VFR   IFR   Intensive IFR   Very Intensive IFR
Visi :
Ceiling :
>= 8 km
>= 3000ft
5 to 8 km
1000 to 3000 ft
1500m to 5 km
500 to 1000 ft
800 to 1500m
200 to 500 ft
< 800m
< 200 ft
Symbols :   Thunderstorms  Fog  Heavy snow  Heavy precipitations  Wind > 20 kt






- Airport Elevation : 55 ft
- IATA code : SFB


KSFB - Orlando Sanford International

CURRENT METAR :
  • 231753Z 08005KT 10SM OVC036 30/23 A3008 RMK AO2 SLP184 T03000228 10311 20244 58009

EXPIRED METARs :
  • 231653Z VRB04KT 10SM SCT035 BKN042 BKN060 31/23 A3011 RMK AO2 SLP196 T03060228
  • 231553Z 25003KT 10SM CLR 30/23 A3012 RMK AO2 SLP197 T03000233

TAF KSFB
Valid from the 23 at 18:00 until the 24 at 18:00 UTC


231728Z 2318/2418 26008KT P6SM VCTS SCT035CB BKN045 BKN060
TEMPO 2318/2322 4SM TSRA BKN035CB BKN060
FM232300 10007KT P6SM VCSH BKN040 BKN060 BKN250
FM240200 VRB04KT P6SM FEW060 SCT120 BKN250
FM241400 07008KT P6SM SCT035 SCT100 SCT250
KZJX FIR / North America



MET'MAP, your aeronautical weather chart ! - Copyright ORBIFLY December 2007 - Disclaimer

ORBIFLY MET'MAP TEAM :

Programming & Development : Alexandra Zaïnal
Concept & original design : Baudouin d'Aumeries
Assistance for programming : Marc-Olivier Méhu
Technical & hardware support : Manuel Goepfert

Contact : metmap@orbifly.com




SOURCES & CREDITS :

   NOAA       Earth
Advisory